Time;durP1;ratioP1;P1;durP2;ratioP2;P2;SDS_P1;SDS_P2;PMS_P1;PMS_P2;Temp;Humidity;BMP_temperature;BMP_pressure;BME280_temperature;BME280_humidity;BME280_pressure;Samples;Min_cycle;Max_cycle;Signal;HPM_P1;HPM_P2
2023/07/14 00:00:37;;;;;;;11.18;8.32;;;15.10;99.90;;;;;;5080007;28;20040;-44
2023/07/14 00:03:04;;;;;;;12.63;9.10;;;15.00;99.90;;;;;;5084467;28;20442;-42
2023/07/14 00:05:36;;;;;;;11.48;8.57;;;15.00;99.90;;;;;;5080320;28;20130;-42
2023/07/14 00:08:06;;;;;;;9.45;7.78;;;15.00;99.90;;;;;;5079867;28;20478;-42
2023/07/14 00:10:34;;;;;;;12.32;8.48;;;14.90;99.90;;;;;;5080624;28;20524;-42
2023/07/14 00:13:05;;;;;;;10.35;8.63;;;14.90;99.90;;;;;;5077089;28;20093;-43
2023/07/14 00:15:34;;;;;;;8.77;7.82;;;14.90;99.90;;;;;;5078715;28;20047;-43
2023/07/14 00:18:29;;;;;;;10.65;7.65;;;14.80;99.90;;;;;;5084005;28;20052;-43
2023/07/14 00:20:56;;;;;;;9.43;8.35;;;14.80;99.90;;;;;;5061938;28;20587;-44
2023/07/14 00:23:22;;;;;;;10.50;8.20;;;14.80;99.90;;;;;;5078269;28;20123;-42
2023/07/14 00:25:47;;;;;;;11.60;8.85;;;14.80;99.90;;;;;;5077509;28;20166;-42
2023/07/14 00:28:19;;;;;;;12.30;9.57;;;14.80;99.90;;;;;;5082162;28;20503;-43
2023/07/14 00:30:46;;;;;;;10.20;8.45;;;14.80;99.90;;;;;;5080736;28;20040;-44
2023/07/14 00:33:14;;;;;;;9.10;8.00;;;14.80;99.90;;;;;;5065390;28;20889;-42
2023/07/14 00:35:41;;;;;;;9.07;8.07;;;14.70;99.90;;;;;;5059736;28;20037;-45
2023/07/14 00:38:07;;;;;;;10.98;9.43;;;14.70;99.90;;;;;;5083403;28;20050;-43
2023/07/14 00:41:00;;;;;;;10.48;8.18;;;14.70;99.90;;;;;;5081229;28;20054;-43
2023/07/14 00:43:29;;;;;;;11.38;8.95;;;14.70;99.90;;;;;;5072808;28;20094;-44
2023/07/14 00:45:56;;;;;;;12.93;9.60;;;14.70;99.90;;;;;;5080116;28;20040;-42
2023/07/14 00:48:24;;;;;;;11.02;8.75;;;14.60;99.90;;;;;;5075722;28;20452;-42
2023/07/14 00:51:09;;;;;;;10.77;8.77;;;14.60;99.90;;;;;;5080117;28;20055;-43
2023/07/14 00:53:40;;;;;;;11.43;8.65;;;14.60;99.90;;;;;;5082752;28;20040;-43
2023/07/14 00:56:14;;;;;;;10.50;9.38;;;14.60;99.90;;;;;;5063981;28;20043;-43
2023/07/14 00:58:46;;;;;;;10.10;9.10;;;14.50;99.90;;;;;;5080367;28;20063;-42
2023/07/14 01:01:22;;;;;;;10.30;9.30;;;14.50;99.90;;;;;;5087446;28;20044;-43
2023/07/14 01:03:58;;;;;;;9.73;8.13;;;14.50;99.90;;;;;;5092279;28;20052;-45
2023/07/14 01:06:42;;;;;;;9.55;8.43;;;14.50;99.90;;;;;;5090750;28;20105;-42
2023/07/14 01:09:13;;;;;;;10.38;8.38;;;14.40;99.90;;;;;;5085311;28;20037;-43
2023/07/14 01:11:51;;;;;;;11.75;9.77;;;14.40;99.90;;;;;;5087852;28;20448;-43
2023/07/14 01:14:23;;;;;;;10.32;9.10;;;14.40;99.90;;;;;;5088765;28;20083;-42
2023/07/14 01:16:51;;;;;;;9.40;8.50;;;14.40;99.90;;;;;;5092799;28;20048;-42
2023/07/14 01:19:23;;;;;;;11.55;9.25;;;14.40;99.90;;;;;;5093017;28;20036;-44
2023/07/14 01:21:54;;;;;;;10.82;8.95;;;14.40;99.90;;;;;;5092710;28;20119;-42
2023/07/14 01:24:29;;;;;;;9.82;8.73;;;14.40;99.90;;;;;;5093636;28;20164;-42
2023/07/14 01:27:04;;;;;;;10.38;8.55;;;14.30;99.90;;;;;;5086387;28;20040;-42
2023/07/14 01:29:32;;;;;;;11.07;8.27;;;14.30;99.90;;;;;;5058503;28;20040;-44
2023/07/14 01:31:59;;;;;;;8.98;8.02;;;14.30;99.90;;;;;;5092947;28;20123;-43
2023/07/14 01:34:25;;;;;;;10.48;9.02;;;14.20;99.90;;;;;;5092435;28;20486;-44
2023/07/14 01:36:58;;;;;;;9.83;8.17;;;14.20;99.90;;;;;;5092811;28;20055;-42
2023/07/14 01:39:28;;;;;;;10.05;8.13;;;14.20;99.90;;;;;;5070946;28;20053;-43
2023/07/14 01:41:53;;;;;;;10.63;8.57;;;14.10;99.90;;;;;;5091839;28;20044;-44
2023/07/14 01:44:21;;;;;;;9.07;8.05;;;14.20;99.90;;;;;;5066233;28;20055;-43
2023/07/14 01:46:48;;;;;;;9.88;8.98;;;14.20;99.90;;;;;;5077178;28;20048;-43
2023/07/14 01:49:25;;;;;;;10.60;8.57;;;14.10;99.90;;;;;;5077831;28;20474;-42
2023/07/14 01:51:53;;;;;;;10.98;8.82;;;14.10;99.90;;;;;;5056378;28;20040;-43
2023/07/14 01:54:37;;;;;;;9.48;8.32;;;14.10;99.90;;;;;;5081913;28;20486;-42
2023/07/14 01:57:09;;;;;;;10.57;9.48;;;14.10;99.90;;;;;;5062171;28;20040;-42
2023/07/14 01:59:37;;;;;;;9.68;8.63;;;14.10;99.90;;;;;;5082195;28;20122;-43
2023/07/14 02:02:06;;;;;;;12.45;9.52;;;14.10;99.90;;;;;;5061682;28;20470;-43
2023/07/14 02:04:35;;;;;;;9.23;8.30;;;14.20;99.90;;;;;;5079094;28;20040;-43
2023/07/14 02:07:01;;;;;;;11.52;9.48;;;14.20;99.90;;;;;;5077698;28;20508;-42
2023/07/14 02:09:29;;;;;;;11.57;9.40;;;14.20;99.90;;;;;;5085006;28;20044;-42
2023/07/14 02:12:02;;;;;;;9.57;8.57;;;14.20;99.90;;;;;;5092363;28;20040;-42
2023/07/14 02:14:46;;;;;;;10.63;9.52;;;14.10;99.90;;;;;;5091739;28;20493;-42
2023/07/14 02:17:30;;;;;;;11.43;10.23;;;14.20;99.90;;;;;;5084001;28;20409;-43
2023/07/14 02:19:57;;;;;;;11.35;10.18;;;14.20;99.90;;;;;;5077470;28;20043;-44
2023/07/14 02:22:24;;;;;;;11.32;10.20;;;14.20;99.90;;;;;;5073436;28;20516;-42
2023/07/14 02:24:52;;;;;;;10.85;9.77;;;14.30;99.90;;;;;;5079124;28;20041;-43
2023/07/14 02:27:18;;;;;;;13.52;9.32;;;14.30;99.90;;;;;;5064008;28;20039;-42
2023/07/14 02:29:44;;;;;;;12.80;9.27;;;14.30;99.90;;;;;;5082169;28;20055;-42
2023/07/14 02:32:19;;;;;;;10.80;9.70;;;14.40;99.90;;;;;;5086735;28;20033;-44
2023/07/14 02:34:55;;;;;;;11.13;9.25;;;14.40;99.90;;;;;;5077656;28;20051;-43
2023/07/14 02:37:42;;;;;;;11.55;8.70;;;14.40;99.90;;;;;;5083119;28;20040;-42
2023/07/14 02:40:09;;;;;;;12.52;10.05;;;14.30;99.90;;;;;;5081153;28;20059;-42
2023/07/14 02:42:41;;;;;;;11.88;9.80;;;14.30;99.90;;;;;;5079288;28;20072;-42
2023/07/14 02:45:07;;;;;;;12.77;10.13;;;14.30;99.90;;;;;;5081096;28;20036;-43
2023/07/14 02:47:37;;;;;;;13.02;11.13;;;14.30;99.90;;;;;;5081865;28;20047;-43
2023/07/14 02:50:03;;;;;;;12.60;10.95;;;14.30;99.90;;;;;;5082984;28;20052;-42
2023/07/14 02:52:29;;;;;;;12.15;10.95;;;14.30;99.90;;;;;;5082615;28;20084;-42
2023/07/14 02:54:54;;;;;;;13.00;11.60;;;14.20;99.90;;;;;;5081850;28;20763;-43
2023/07/14 02:57:20;;;;;;;15.20;12.00;;;14.20;99.90;;;;;;5067434;28;20492;-42
2023/07/14 02:59:46;;;;;;;14.25;12.20;;;14.10;99.90;;;;;;5069170;28;20044;-42
2023/07/14 03:02:11;;;;;;;16.48;12.10;;;14.10;99.90;;;;;;5093053;28;20072;-43
2023/07/14 03:04:37;;;;;;;12.80;11.32;;;14.00;99.90;;;;;;5077915;28;20474;-42
2023/07/14 03:07:03;;;;;;;12.52;11.23;;;14.00;99.90;;;;;;5095513;28;20051;-42
2023/07/14 03:09:29;;;;;;;14.43;12.20;;;14.00;99.90;;;;;;5076622;28;20052;-42
2023/07/14 03:11:55;;;;;;;15.77;12.73;;;14.00;99.90;;;;;;5076706;28;20167;-42
2023/07/14 03:14:20;;;;;;;14.00;12.50;;;14.00;99.90;;;;;;5091996;28;20105;-43
2023/07/14 03:16:46;;;;;;;14.70;12.10;;;14.00;99.90;;;;;;5063463;28;20041;-42
2023/07/14 03:19:12;;;;;;;13.90;12.50;;;14.00;99.90;;;;;;5089642;28;20497;-41
2023/07/14 03:21:38;;;;;;;18.45;13.40;;;14.00;99.90;;;;;;5095339;28;20031;-42
2023/07/14 03:24:05;;;;;;;15.05;13.65;;;13.90;99.90;;;;;;5088702;28;20042;-42
2023/07/14 03:26:31;;;;;;;17.45;14.20;;;13.90;99.90;;;;;;5071885;28;20044;-42
2023/07/14 03:28:57;;;;;;;17.00;15.18;;;14.00;99.90;;;;;;5091174;28;20032;-42
2023/07/14 03:31:23;;;;;;;19.48;15.57;;;14.00;99.90;;;;;;5074984;28;20140;-42
2023/07/14 03:33:48;;;;;;;17.75;15.02;;;14.00;99.90;;;;;;5074715;28;20105;-43
2023/07/14 03:36:14;;;;;;;16.95;15.25;;;14.00;99.90;;;;;;5086505;28;20043;-42
2023/07/14 03:38:43;;;;;;;17.33;15.48;;;14.10;99.90;;;;;;5065603;28;20131;-42
2023/07/14 03:41:09;;;;;;;16.00;14.35;;;14.10;99.90;;;;;;5079583;28;20064;-42
2023/07/14 03:43:35;;;;;;;16.90;14.75;;;14.10;99.90;;;;;;5080386;28;20040;-42
2023/07/14 03:46:01;;;;;;;16.90;15.18;;;14.10;99.90;;;;;;5080209;28;20119;-43
2023/07/14 03:48:27;;;;;;;18.20;16.27;;;14.10;99.90;;;;;;5080865;28;20051;-42
2023/07/14 03:50:53;;;;;;;20.88;17.42;;;14.10;99.90;;;;;;5079296;28;20033;-42
2023/07/14 03:53:18;;;;;;;18.30;16.45;;;14.10;99.90;;;;;;5064455;28;20056;-42
2023/07/14 03:55:46;;;;;;;20.65;17.05;;;14.10;99.90;;;;;;5079964;28;20122;-42
2023/07/14 03:58:12;;;;;;;21.13;17.45;;;14.10;99.90;;;;;;5079723;28;20514;-42
2023/07/14 04:00:38;;;;;;;18.27;16.38;;;14.10;99.90;;;;;;5081355;28;20047;-42
2023/07/14 04:03:04;;;;;;;22.13;15.85;;;14.20;99.90;;;;;;5081470;28;20036;-42
2023/07/14 04:05:30;;;;;;;18.65;16.58;;;14.20;99.90;;;;;;5079019;28;20036;-42
2023/07/14 04:07:56;;;;;;;23.92;17.92;;;14.20;99.90;;;;;;5078650;28;20215;-42
2023/07/14 04:10:22;;;;;;;19.30;17.35;;;14.20;99.90;;;;;;5077707;28;20736;-43
2023/07/14 04:12:49;;;;;;;19.08;16.48;;;14.30;99.90;;;;;;5077195;28;20074;-43
2023/07/14 04:15:14;;;;;;;20.15;16.80;;;14.30;99.90;;;;;;5079454;28;20167;-43
2023/07/14 04:17:40;;;;;;;19.23;17.25;;;14.40;99.90;;;;;;5078161;28;20123;-44
2023/07/14 04:20:06;;;;;;;21.67;17.33;;;14.40;99.90;;;;;;5077992;28;20383;-42
2023/07/14 04:22:33;;;;;;;19.85;16.00;;;14.50;99.90;;;;;;5078836;28;20127;-42
2023/07/14 04:24:58;;;;;;;20.08;17.67;;;14.50;99.90;;;;;;5078970;28;20085;-42
2023/07/14 04:27:25;;;;;;;21.40;17.65;;;14.60;99.90;;;;;;5076819;28;20048;-43
2023/07/14 04:29:51;;;;;;;19.95;17.83;;;14.70;99.90;;;;;;5075596;28;20047;-43
2023/07/14 04:32:16;;;;;;;21.20;17.38;;;14.90;99.90;;;;;;5081876;28;20165;-43
2023/07/14 04:34:42;;;;;;;20.02;17.20;;;15.00;99.90;;;;;;5080603;28;20062;-43
2023/07/14 04:37:09;;;;;;;18.15;16.23;;;15.20;99.90;;;;;;5077598;28;20509;-43
2023/07/14 04:39:35;;;;;;;18.08;16.13;;;15.60;99.90;;;;;;5044611;28;20517;-42
2023/07/14 04:42:01;;;;;;;17.88;16.00;;;15.70;99.90;;;;;;5077178;28;20044;-43
2023/07/14 04:44:26;;;;;;;18.30;16.40;;;16.40;99.90;;;;;;5078595;28;20116;-42
2023/07/14 04:46:52;;;;;;;17.30;15.52;;;16.70;99.90;;;;;;5078274;28;20081;-43
2023/07/14 04:49:18;;;;;;;18.10;15.82;;;16.80;99.90;;;;;;5081702;28;20674;-43
2023/07/14 04:51:44;;;;;;;15.85;14.05;;;16.90;99.90;;;;;;5078165;28;20051;-43
2023/07/14 04:54:10;;;;;;;14.55;13.00;;;17.00;99.90;;;;;;5077205;28;20043;-43
2023/07/14 04:56:37;;;;;;;17.85;14.30;;;16.90;99.90;;;;;;5078526;28;20402;-44
2023/07/14 04:59:06;;;;;;;15.32;13.82;;;16.80;99.90;;;;;;5082263;28;20176;-43
2023/07/14 05:01:32;;;;;;;18.25;13.40;;;16.70;99.90;;;;;;5086006;28;20040;-42
2023/07/14 05:03:58;;;;;;;17.20;13.35;;;16.60;99.90;;;;;;5083426;28;20055;-43
2023/07/14 05:06:24;;;;;;;16.73;13.52;;;16.50;99.90;;;;;;5076725;28;20040;-43
2023/07/14 05:08:50;;;;;;;21.02;13.05;;;16.50;99.90;;;;;;5079331;28;20036;-42
2023/07/14 05:11:16;;;;;;;15.98;13.73;;;16.40;99.90;;;;;;5081510;28;20047;-42
2023/07/14 05:13:41;;;;;;;19.48;13.48;;;16.30;99.90;;;;;;5078256;28;20028;-43
2023/07/14 05:16:08;;;;;;;15.05;13.30;;;16.30;99.90;;;;;;5077769;28;20083;-42
2023/07/14 05:18:34;;;;;;;15.27;13.48;;;16.30;99.90;;;;;;5062033;28;20490;-44
2023/07/14 05:21:01;;;;;;;14.10;12.63;;;16.30;99.90;;;;;;5061265;28;20044;-44
2023/07/14 05:23:28;;;;;;;18.23;14.30;;;16.20;99.90;;;;;;5077510;28;20467;-43
2023/07/14 05:25:55;;;;;;;14.35;12.73;;;16.20;99.90;;;;;;5079592;28;20036;-44
2023/07/14 05:28:21;;;;;;;13.60;12.23;;;16.20;99.90;;;;;;5080428;28;20035;-42
2023/07/14 05:30:47;;;;;;;13.77;12.38;;;16.20;99.90;;;;;;5075694;28;20044;-43
2023/07/14 05:33:16;;;;;;;15.07;12.57;;;16.30;99.90;;;;;;5077527;28;20505;-43
2023/07/14 05:35:42;;;;;;;14.27;12.70;;;16.20;99.90;;;;;;5060008;28;20131;-42
2023/07/14 05:38:08;;;;;;;13.93;12.18;;;16.20;99.90;;;;;;5087084;28;20049;-43
2023/07/14 05:40:33;;;;;;;14.50;13.02;;;16.30;99.90;;;;;;5082331;28;20460;-42
2023/07/14 05:42:59;;;;;;;12.85;11.48;;;16.30;99.90;;;;;;5080325;28;20050;-44
2023/07/14 05:45:25;;;;;;;14.80;10.77;;;16.30;99.90;;;;;;5078375;28;20770;-42
2023/07/14 05:47:51;;;;;;;12.35;11.00;;;16.40;99.90;;;;;;5081871;28;20054;-43
2023/07/14 05:50:17;;;;;;;13.35;11.95;;;16.50;99.90;;;;;;5078908;28;20052;-42
2023/07/14 05:52:44;;;;;;;13.98;11.57;;;16.50;99.90;;;;;;5080953;28;20063;-42
2023/07/14 05:55:11;;;;;;;13.60;11.40;;;16.60;99.90;;;;;;5077596;28;20070;-43
2023/07/14 05:57:37;;;;;;;13.00;11.13;;;16.70;99.90;;;;;;5078146;28;20040;-43
2023/07/14 06:00:16;;;;;;;13.57;12.10;;;16.80;99.90;;;;;;5079849;28;20046;-44
2023/07/14 06:02:44;;;;;;;12.45;11.18;;;16.90;99.90;;;;;;5081474;28;20036;-43
2023/07/14 06:05:10;;;;;;;12.05;10.88;;;17.10;99.90;;;;;;5075492;28;20052;-44
2023/07/14 06:07:37;;;;;;;13.60;11.43;;;17.20;99.90;;;;;;5084227;28;20052;-43
2023/07/14 06:10:05;;;;;;;12.85;10.70;;;17.60;99.90;;;;;;5092041;28;20175;-44
2023/07/14 06:12:30;;;;;;;14.80;10.85;;;17.60;99.90;;;;;;5076800;28;20052;-43
2023/07/14 06:14:56;;;;;;;11.43;9.80;;;17.90;99.90;;;;;;5062800;28;20520;-44
2023/07/14 06:17:22;;;;;;;11.15;9.82;;;18.10;99.90;;;;;;5081839;28;20044;-42
2023/07/14 06:19:48;;;;;;;11.63;10.10;;;18.30;99.90;;;;;;5075769;28;20419;-43
2023/07/14 06:22:14;;;;;;;10.35;9.02;;;18.40;99.90;;;;;;5079496;28;20332;-45
2023/07/14 06:24:40;;;;;;;12.10;9.23;;;18.60;99.90;;;;;;5076315;28;20470;-44
2023/07/14 06:27:06;;;;;;;11.90;9.15;;;18.70;99.90;;;;;;5080224;28;20055;-45
2023/07/14 06:29:33;;;;;;;9.95;8.90;;;19.20;99.90;;;;;;5067615;28;20369;-45
2023/07/14 06:31:59;;;;;;;10.43;9.43;;;20.70;99.90;;;;;;5084360;28;20398;-45
2023/07/14 06:34:25;;;;;;;9.40;8.18;;;21.10;99.90;;;;;;5084708;28;20305;-43
2023/07/14 06:36:51;;;;;;;10.43;8.43;;;21.90;99.90;;;;;;5084907;28;20040;-44
2023/07/14 06:39:19;;;;;;;9.02;8.15;;;22.50;99.90;;;;;;5079027;28;20192;-43
2023/07/14 06:41:46;;;;;;;9.60;7.55;;;22.80;99.90;;;;;;5082684;28;20101;-45
2023/07/14 06:44:12;;;;;;;13.48;7.60;;;23.20;99.90;;;;;;5081971;28;20040;-44
2023/07/14 06:46:37;;;;;;;9.75;7.65;;;23.90;99.90;;;;;;5068767;28;20037;-43
2023/07/14 06:49:03;;;;;;;9.88;6.47;;;24.60;99.90;;;;;;5085639;28;20028;-44
2023/07/14 06:51:30;;;;;;;7.55;6.82;;;25.60;99.90;;;;;;5087319;28;20445;-45
2023/07/14 06:53:56;;;;;;;8.43;6.40;;;25.50;99.90;;;;;;5085085;28;20070;-43
2023/07/14 06:56:22;;;;;;;8.02;6.55;;;25.80;99.90;;;;;;5084776;28;20075;-43
2023/07/14 06:58:48;;;;;;;9.32;6.25;;;26.10;99.90;;;;;;5087444;28;20069;-44
2023/07/14 07:01:15;;;;;;;8.15;6.25;;;26.60;99.90;;;;;;5077651;28;20678;-43
2023/07/14 07:03:40;;;;;;;9.95;6.75;;;26.60;99.90;;;;;;5053117;28;20048;-45
2023/07/14 07:06:06;;;;;;;7.55;6.70;;;27.00;99.90;;;;;;5076558;28;20029;-46
2023/07/14 07:08:32;;;;;;;8.10;6.28;;;27.10;99.90;;;;;;5053883;28;20483;-41
2023/07/14 07:10:59;;;;;;;7.70;6.15;;;27.30;99.90;;;;;;5073036;28;20033;-42
2023/07/14 07:13:25;;;;;;;6.97;6.18;;;27.30;99.90;;;;;;5082762;28;20051;-42
2023/07/14 07:15:51;;;;;;;10.40;6.90;;;27.20;99.90;;;;;;5080128;28;20052;-44
2023/07/14 07:18:19;;;;;;;8.20;6.88;;;27.30;99.90;;;;;;5075296;28;20045;-42
2023/07/14 07:20:45;;;;;;;6.88;5.32;;;27.50;99.90;;;;;;5086539;28;20170;-42
2023/07/14 07:23:11;;;;;;;6.65;5.28;;;27.40;99.90;;;;;;5080528;28;20119;-45
2023/07/14 07:25:37;;;;;;;7.95;5.65;;;27.50;99.90;;;;;;5080644;28;20044;-44
2023/07/14 07:28:04;;;;;;;7.63;5.95;;;27.40;99.90;;;;;;5058044;28;20036;-43
2023/07/14 07:30:32;;;;;;;7.30;6.10;;;27.40;99.90;;;;;;5074916;28;20045;-44
2023/07/14 07:32:58;;;;;;;7.35;5.60;;;27.40;99.90;;;;;;5081816;28;20043;-44
2023/07/14 07:35:24;;;;;;;8.10;6.22;;;27.00;99.90;;;;;;5061136;28;20179;-47
2023/07/14 07:37:50;;;;;;;7.75;5.70;;;27.00;99.90;;;;;;5064750;28;20041;-43
2023/07/14 07:40:17;;;;;;;9.45;6.20;;;27.10;99.90;;;;;;5086008;28;20035;-44
2023/07/14 07:42:43;;;;;;;6.50;5.65;;;27.20;99.90;;;;;;5091740;28;20416;-42
2023/07/14 07:45:09;;;;;;;7.20;5.78;;;27.00;99.90;;;;;;5088603;28;20043;-45
2023/07/14 07:47:35;;;;;;;13.40;5.70;;;26.80;99.90;;;;;;5077522;28;20268;-46
2023/07/14 07:50:01;;;;;;;6.05;5.45;;;26.30;99.90;;;;;;5073219;28;20144;-43
2023/07/14 07:52:26;;;;;;;6.78;5.07;;;25.80;99.90;;;;;;5077043;28;20082;-43
2023/07/14 07:54:52;;;;;;;7.93;6.03;;;25.60;99.90;;;;;;5057995;28;20037;-43
2023/07/14 07:57:18;;;;;;;7.72;6.15;;;25.00;99.90;;;;;;5078686;28;20032;-44
2023/07/14 07:59:44;;;;;;;5.70;4.90;;;25.00;99.90;;;;;;5073697;28;20044;-42
2023/07/14 08:02:11;;;;;;;7.75;5.30;;;24.70;99.90;;;;;;5077518;28;20036;-43
2023/07/14 08:04:38;;;;;;;5.85;5.30;;;24.80;99.90;;;;;;5056769;28;20036;-43
2023/07/14 08:07:12;;;;;;;8.15;4.50;;;24.70;99.90;;;;;;5081378;28;20046;-43
2023/07/14 08:09:38;;;;;;;4.18;3.78;;;24.70;99.90;;;;;;5078208;28;20048;-43
2023/07/14 08:12:04;;;;;;;4.60;3.83;;;24.60;99.90;;;;;;5076438;28;20044;-45
2023/07/14 08:14:31;;;;;;;6.63;3.95;;;24.30;99.90;;;;;;5076090;28;20499;-43
2023/07/14 08:16:57;;;;;;;7.10;3.47;;;24.40;99.90;;;;;;5075022;28;20048;-43
2023/07/14 08:19:22;;;;;;;7.53;3.78;;;24.00;99.90;;;;;;5078313;28;20067;-42
2023/07/14 08:21:48;;;;;;;6.28;3.10;;;23.80;99.90;;;;;;5064674;28;20068;-42
2023/07/14 08:24:14;;;;;;;4.07;2.80;;;23.90;99.90;;;;;;5075265;28;20363;-44
2023/07/14 08:26:40;;;;;;;3.15;2.58;;;23.90;99.90;;;;;;5069045;28;20036;-44
2023/07/14 08:29:07;;;;;;;5.60;3.20;;;23.90;99.90;;;;;;5085921;28;20045;-44
2023/07/14 08:31:32;;;;;;;6.22;3.53;;;23.80;99.90;;;;;;5083472;28;20051;-44
2023/07/14 08:33:58;;;;;;;4.15;2.35;;;24.00;99.90;;;;;;5077959;28;20094;-43
2023/07/14 08:36:24;;;;;;;5.32;2.47;;;24.00;99.90;;;;;;5075504;28;20036;-43
2023/07/14 08:38:54;;;;;;;6.43;2.58;;;24.00;99.90;;;;;;5077854;28;20048;-45
2023/07/14 08:41:33;;;;;;;4.30;2.17;;;24.00;99.90;;;;;;5074739;28;20580;-46
2023/07/14 08:44:17;;;;;;;5.72;2.47;;;23.70;99.90;;;;;;5078648;28;20043;-43
2023/07/14 08:47:00;;;;;;;5.25;2.97;;;23.70;99.90;;;;;;5078002;28;20040;-44
2023/07/14 08:49:41;;;;;;;5.40;2.50;;;24.00;99.90;;;;;;5075546;28;20044;-47
2023/07/14 08:52:27;;;;;;;4.85;2.67;;;24.00;99.90;;;;;;5074393;28;20567;-44
2023/07/14 08:55:02;;;;;;;5.70;2.40;;;24.20;99.90;;;;;;5079582;28;20047;-44
2023/07/14 08:57:29;;;;;;;5.65;2.50;;;24.00;99.90;;;;;;5082132;28;20405;-44
2023/07/14 08:59:59;;;;;;;8.82;2.60;;;24.20;99.90;;;;;;5063511;28;20365;-47
2023/07/14 09:02:39;;;;;;;3.10;2.10;;;24.00;99.90;;;;;;5073367;28;20777;-43
2023/07/14 09:05:24;;;;;;;4.43;2.70;;;23.60;99.90;;;;;;5075680;28;20040;-44
2023/07/14 09:07:51;;;;;;;3.85;2.63;;;23.20;99.90;;;;;;5056190;28;20045;-44
2023/07/14 09:10:19;;;;;;;6.95;2.80;;;23.10;99.90;;;;;;5076935;28;20043;-43
2023/07/14 09:12:51;;;;;;;;;;;23.00;99.90;;;;;;5075054;28;20546;-44
2023/07/14 09:15:22;;;;;;;4.38;2.30;;;23.20;99.90;;;;;;5078784;28;20331;-44
2023/07/14 09:18:14;;;;;;;4.60;2.22;;;23.20;99.90;;;;;;5063863;28;20474;-44
2023/07/14 09:20:43;;;;;;;4.97;2.33;;;23.40;99.90;;;;;;5081127;28;20040;-43
2023/07/14 09:23:41;;;;;;;3.50;2.30;;;23.70;99.90;;;;;;5080710;28;20032;-42
2023/07/14 09:26:13;;;;;;;9.70;3.08;;;23.80;99.90;;;;;;5039552;28;20048;-44
2023/07/14 09:28:43;;;;;;;4.95;2.40;;;24.00;99.90;;;;;;5077334;28;22190;-43
2023/07/14 09:31:49;;;;;;;4.60;2.33;;;24.00;99.90;;;;;;5084008;28;20485;-43
2023/07/14 09:34:27;;;;;;;5.03;2.53;;;23.70;99.90;;;;;;5078493;28;20044;-43
2023/07/14 09:36:54;;;;;;;5.38;2.40;;;23.70;99.90;;;;;;5089062;28;20126;-44
2023/07/14 09:39:37;;;;;;;3.25;2.20;;;23.80;99.90;;;;;;5077543;28;20063;-44
2023/07/14 09:42:07;;;;;;;5.03;2.45;;;23.70;99.90;;;;;;5088654;28;20043;-46
2023/07/14 09:44:33;;;;;;;3.20;2.22;;;23.60;99.90;;;;;;5092181;28;20064;-43
2023/07/14 09:47:02;;;;;;;4.17;2.40;;;24.10;99.90;;;;;;5092338;28;20424;-43
2023/07/14 09:49:39;;;;;;;6.45;2.25;;;24.60;99.90;;;;;;5091452;28;20520;-45
2023/07/14 09:52:14;;;;;;;7.25;2.40;;;24.50;99.90;;;;;;5091236;28;20040;-44
2023/07/14 09:54:56;;;;;;;4.65;2.42;;;24.60;99.90;;;;;;5089694;28;20044;-44
2023/07/14 09:57:25;;;;;;;3.13;2.22;;;25.00;99.90;;;;;;5088325;28;20040;-43
2023/07/14 10:00:10;;;;;;;5.50;2.40;;;25.00;99.90;;;;;;5093265;28;20474;-43
2023/07/14 10:02:36;;;;;;;4.25;2.25;;;25.10;99.90;;;;;;5088697;28;20036;-43
2023/07/14 10:05:21;;;;;;;8.85;2.67;;;25.30;99.90;;;;;;5088031;28;20478;-46
2023/07/14 10:07:47;;;;;;;2.65;2.20;;;25.20;99.90;;;;;;5083966;28;20132;-43
2023/07/14 10:10:15;;;;;;;2.95;2.17;;;24.70;99.90;;;;;;5071193;28;20045;-44
2023/07/14 10:12:43;;;;;;;5.72;2.20;;;24.40;99.90;;;;;;5073449;28;20093;-42
2023/07/14 10:15:24;;;;;;;3.63;2.22;;;24.40;99.90;;;;;;5077160;28;20073;-42
2023/07/14 10:17:57;;;;;;;4.80;2.45;;;24.10;99.90;;;;;;5071728;28;20047;-45
2023/07/14 10:20:24;;;;;;;7.20;2.33;;;24.00;99.90;;;;;;5091795;28;20044;-42
2023/07/14 10:22:53;;;;;;;3.40;2.10;;;24.00;99.90;;;;;;5088628;28;20180;-43
2023/07/14 10:25:21;;;;;;;3.60;2.10;;;24.10;99.90;;;;;;5078556;28;20381;-43
2023/07/14 10:27:58;;;;;;;5.32;2.70;;;24.20;99.90;;;;;;5090136;28;20508;-43
2023/07/14 10:30:35;;;;;;;6.22;2.83;;;24.10;99.90;;;;;;5083801;28;20045;-44
2023/07/14 10:33:01;;;;;;;3.45;2.40;;;24.40;99.90;;;;;;5091162;28;20683;-43
2023/07/14 10:35:35;;;;;;;5.05;2.50;;;24.30;99.90;;;;;;5091635;28;20036;-43
2023/07/14 10:38:19;;;;;;;2.42;2.15;;;24.40;99.90;;;;;;5071172;28;20052;-44
2023/07/14 10:40:55;;;;;;;4.43;2.53;;;24.60;99.90;;;;;;5085908;28;20046;-43
2023/07/14 10:43:32;;;;;;;5.30;2.20;;;25.20;99.90;;;;;;5089356;28;20033;-43
2023/07/14 10:46:04;;;;;;;3.22;2.40;;;25.20;99.90;;;;;;5092814;28;20075;-43
2023/07/14 10:48:34;;;;;;;3.95;2.30;;;25.20;99.90;;;;;;5093442;28;20123;-44
2023/07/14 10:51:30;;;;;;;3.10;2.28;;;25.20;99.90;;;;;;5076711;28;20035;-43
2023/07/14 10:54:02;;;;;;;2.38;2.17;;;24.90;99.90;;;;;;5094905;28;20039;-44
2023/07/14 10:56:34;;;;;;;5.07;2.47;;;24.80;99.90;;;;;;5094989;28;20052;-44
2023/07/14 10:59:21;;;;;;;4.20;2.35;;;24.70;99.90;;;;;;5087639;28;20101;-45
2023/07/14 11:02:11;;;;;;;4.50;2.53;;;24.50;99.90;;;;;;5083682;28;20076;-43
2023/07/14 11:05:04;;;;;;;4.35;2.40;;;24.40;99.90;;;;;;5086297;28;20040;-42
2023/07/14 11:07:33;;;;;;;4.30;2.53;;;24.70;99.90;;;;;;5070747;28;20055;-43
2023/07/14 11:10:00;;;;;;;4.90;2.50;;;24.90;99.90;;;;;;5089685;28;20032;-44
2023/07/14 11:12:39;;;;;;;2.83;2.47;;;24.80;99.90;;;;;;5073287;28;20126;-43
2023/07/14 11:15:11;;;;;;;5.25;2.20;;;24.90;99.90;;;;;;5087378;28;20858;-45
2023/07/14 11:17:56;;;;;;;2.80;2.13;;;25.20;99.90;;;;;;5092026;28;20505;-43
2023/07/14 11:20:40;;;;;;;3.42;2.20;;;25.30;99.90;;;;;;5093271;28;20036;-42
2023/07/14 11:23:34;;;;;;;5.18;2.65;;;25.20;99.90;;;;;;5054585;28;20779;-45
2023/07/14 11:26:17;;;;;;;4.22;2.22;;;25.10;99.90;;;;;;5075393;28;20048;-43
2023/07/14 11:28:51;;;;;;;5.53;2.13;;;25.00;99.90;;;;;;5092303;28;20082;-42
2023/07/14 11:31:29;;;;;;;5.03;2.20;;;25.00;99.90;;;;;;5091772;28;20555;-43
2023/07/14 11:34:06;;;;;;;4.03;2.25;;;24.70;99.90;;;;;;5083962;28;20612;-44
2023/07/14 11:36:53;;;;;;;3.35;2.15;;;24.60;99.90;;;;;;5075064;28;20044;-43
2023/07/14 11:39:36;;;;;;;4.50;2.67;;;24.60;99.90;;;;;;5075949;28;20075;-42
2023/07/14 11:42:02;;;;;;;3.67;2.28;;;24.60;99.90;;;;;;5087825;28;20493;-44
2023/07/14 11:44:28;;;;;;;5.10;2.45;;;24.80;99.90;;;;;;5089559;28;20044;-42
2023/07/14 11:46:54;;;;;;;4.85;2.30;;;25.20;99.90;;;;;;5091833;28;20036;-45
2023/07/14 11:49:31;;;;;;;3.10;2.45;;;25.30;99.50;;;;;;5075964;28;20059;-44
2023/07/14 11:52:08;;;;;;;;;;;25.50;99.90;;;;;;5095641;28;20040;-44
2023/07/14 11:54:41;;;;;;;3.42;2.08;;;25.40;99.70;;;;;;5084865;28;19927;-45
2023/07/14 11:57:16;;;;;;;4.35;2.40;;;25.50;99.50;;;;;;5088324;28;20040;-45
2023/07/14 11:59:59;;;;;;;4.10;2.33;;;25.60;99.60;;;;;;5075028;28;20055;-43
2023/07/14 12:02:29;;;;;;;4.40;2.17;;;;;;;;;;5092654;28;20049;-43
2023/07/14 12:05:01;;;;;;;4.30;2.50;;;25.70;99.80;;;;;;5063720;28;20051;-43
2023/07/14 12:07:27;;;;;;;3.38;2.10;;;25.70;98.90;;;;;;5089518;28;20040;-44
2023/07/14 12:09:56;;;;;;;2.42;2.15;;;25.60;99.40;;;;;;5085091;28;20124;-43
2023/07/14 12:12:21;;;;;;;4.30;2.25;;;25.50;99.30;;;;;;5089141;28;20047;-44
2023/07/14 12:14:51;;;;;;;4.65;1.88;;;25.20;99.20;;;;;;5070020;28;20518;-44
2023/07/14 12:17:46;;;;;;;4.13;2.20;;;25.40;99.10;;;;;;5073912;28;20386;-43
2023/07/14 12:20:11;;;;;;;3.88;2.25;;;25.30;99.00;;;;;;5088523;28;20036;-44
2023/07/14 12:22:41;;;;;;;3.88;2.35;;;25.20;98.80;;;;;;5092764;28;20110;-44
2023/07/14 12:25:17;;;;;;;4.60;2.33;;;25.00;98.80;;;;;;5084679;28;20043;-44
2023/07/14 12:27:51;;;;;;;2.90;2.20;;;25.20;99.00;;;;;;5084744;28;20131;-42
2023/07/14 12:30:19;;;;;;;3.58;2.30;;;25.20;99.10;;;;;;5084943;28;20134;-43
2023/07/14 12:32:44;;;;;;;3.28;2.15;;;25.00;99.10;;;;;;5077812;28;20099;-43
2023/07/14 12:35:18;;;;;;;3.28;2.30;;;25.20;99.10;;;;;;5087302;28;20037;-43
2023/07/14 12:37:44;;;;;;;4.85;2.70;;;25.10;98.90;;;;;;5086033;28;20044;-43
2023/07/14 12:40:21;;;;;;;4.93;2.40;;;25.10;98.90;;;;;;5079746;28;20037;-43
2023/07/14 12:42:48;;;;;;;5.88;2.80;;;25.10;99.90;;;;;;5071753;28;20040;-43
2023/07/14 12:45:17;;;;;;;2.75;2.15;;;25.20;99.90;;;;;;5068708;28;20040;-44
2023/07/14 12:47:46;;;;;;;4.47;2.58;;;25.30;99.80;;;;;;5070954;28;20040;-43
2023/07/14 12:50:17;;;;;;;3.85;2.65;;;25.40;99.90;;;;;;5089676;28;20035;-46
2023/07/14 12:52:44;;;;;;;4.05;2.20;;;25.20;98.40;;;;;;5090551;28;20044;-42
2023/07/14 12:55:16;;;;;;;4.05;2.15;;;25.50;99.50;;;;;;5089942;28;20036;-43